createdAt,value
2017-11-06T00:00:15.998Z,1004.33
2017-11-06T00:01:15.893Z,1004.32
2017-11-06T00:02:15.817Z,1004.35
2017-11-06T00:03:15.724Z,1004.38
2017-11-06T00:04:15.659Z,1004.37
2017-11-06T00:05:15.560Z,1004.38
2017-11-06T00:06:15.539Z,1004.37
2017-11-06T00:07:15.403Z,1004.40
2017-11-06T00:08:15.303Z,1004.40
2017-11-06T00:09:15.220Z,1004.45
2017-11-06T00:10:15.134Z,1004.45
2017-11-06T00:11:15.045Z,1004.45
2017-11-06T00:12:14.962Z,1004.51
2017-11-06T00:13:14.890Z,1004.48
2017-11-06T00:14:14.802Z,1004.50
2017-11-06T00:15:14.710Z,1004.51
2017-11-06T00:16:14.629Z,1004.50
2017-11-06T00:17:14.539Z,1004.49
2017-11-06T00:18:14.455Z,1004.48
2017-11-06T00:19:14.393Z,1004.49
2017-11-06T00:20:14.297Z,1004.50
2017-11-06T00:21:14.233Z,1004.49
2017-11-06T00:22:14.122Z,1004.44
2017-11-06T00:23:14.036Z,1004.45
2017-11-06T00:24:13.949Z,1004.50
2017-11-06T00:25:13.873Z,1004.47
2017-11-06T00:26:13.782Z,1004.49
2017-11-06T00:27:13.694Z,1004.49
2017-11-06T00:28:13.619Z,1004.53
2017-11-06T00:29:13.525Z,1004.56
2017-11-06T00:30:13.457Z,1004.52
2017-11-06T00:31:13.362Z,1004.51
2017-11-06T00:32:13.275Z,1004.54
2017-11-06T00:33:13.198Z,1004.55
2017-11-06T00:34:13.102Z,1004.56
2017-11-06T00:35:13.020Z,1004.52
2017-11-06T00:36:12.937Z,1004.52
2017-11-06T00:37:12.850Z,1004.53
2017-11-06T00:38:12.768Z,1004.61
2017-11-06T00:39:12.699Z,1004.65
2017-11-06T00:40:12.594Z,1004.68
2017-11-06T00:41:12.510Z,1004.73
2017-11-06T00:42:12.451Z,1004.76
2017-11-06T00:43:12.344Z,1004.78
2017-11-06T00:44:12.255Z,1004.82
2017-11-06T00:45:12.181Z,1004.85
2017-11-06T00:46:12.091Z,1004.86
2017-11-06T00:47:12.035Z,1004.86
2017-11-06T00:48:11.919Z,1004.87
2017-11-06T00:49:11.843Z,1004.88
2017-11-06T00:50:11.763Z,1004.90
2017-11-06T00:51:11.674Z,1004.89
2017-11-06T00:52:11.586Z,1004.89
2017-11-06T00:53:11.516Z,1004.88
2017-11-06T00:54:11.414Z,1004.93
2017-11-06T00:55:11.338Z,1004.98
2017-11-06T00:56:11.244Z,1005.02
2017-11-06T00:57:11.159Z,1005.01
2017-11-06T00:58:11.069Z,1005.04
2017-11-06T00:59:10.994Z,1005.02
2017-11-06T01:00:10.915Z,1005.04
2017-11-06T01:01:10.907Z,1005.08
2017-11-06T01:02:10.734Z,1005.07
2017-11-06T01:03:10.646Z,1005.07
2017-11-06T01:04:10.562Z,1005.12
2017-11-06T01:05:10.476Z,1005.14
2017-11-06T01:06:10.394Z,1005.15
2017-11-06T01:07:10.317Z,1005.16
2017-11-06T01:08:10.285Z,1005.18
2017-11-06T01:09:10.148Z,1005.14
2017-11-06T01:10:10.058Z,1005.17
2017-11-06T01:11:09.968Z,1005.13
2017-11-06T01:12:09.915Z,1005.16
2017-11-06T01:13:09.801Z,1005.13
2017-11-06T01:14:09.715Z,1005.17
2017-11-06T01:15:09.628Z,1005.21
2017-11-06T01:16:09.544Z,1005.19
2017-11-06T01:17:09.478Z,1005.23
2017-11-06T01:18:09.385Z,1005.22
2017-11-06T01:19:09.300Z,1005.21
2017-11-06T01:20:09.209Z,1005.23
2017-11-06T01:21:09.123Z,1005.28
2017-11-06T01:22:09.043Z,1005.29
2017-11-06T01:23:08.976Z,1005.31
2017-11-06T01:24:08.869Z,1005.31
2017-11-06T01:25:08.783Z,1005.29
2017-11-06T01:26:08.696Z,1005.30
2017-11-06T01:27:08.616Z,1005.30
2017-11-06T01:28:08.556Z,1005.30
2017-11-06T01:29:08.720Z,1005.27
2017-11-06T01:30:08.412Z,1005.29
2017-11-06T01:31:08.276Z,1005.28
2017-11-06T01:32:08.200Z,1005.32
2017-11-06T01:33:08.106Z,1005.32
2017-11-06T01:34:08.021Z,1005.32
2017-11-06T01:35:07.950Z,1005.35
2017-11-06T01:36:07.870Z,1005.29
2017-11-06T01:37:07.770Z,1005.30
2017-11-06T01:38:07.686Z,1005.35
2017-11-06T01:39:07.600Z,1005.34
2017-11-06T01:40:07.535Z,1005.37
2017-11-06T01:41:07.436Z,1005.41
2017-11-06T01:42:07.348Z,1005.43
2017-11-06T01:43:07.266Z,1005.44
2017-11-06T01:44:07.178Z,1005.40
2017-11-06T01:45:07.089Z,1005.43
2017-11-06T01:46:07.016Z,1005.39
2017-11-06T01:47:06.934Z,1005.42
2017-11-06T01:48:06.840Z,1005.40
2017-11-06T01:49:06.762Z,1005.42
2017-11-06T01:50:06.671Z,1005.48
2017-11-06T01:51:06.613Z,1005.48
2017-11-06T01:52:06.503Z,1005.48
2017-11-06T01:53:06.420Z,1005.47
2017-11-06T01:54:06.340Z,1005.46
2017-11-06T01:55:06.261Z,1005.46
2017-11-06T01:56:06.164Z,1005.45
2017-11-06T01:57:06.076Z,1005.43
2017-11-06T01:58:05.989Z,1005.44
2017-11-06T01:59:05.905Z,1005.41
2017-11-06T02:00:05.828Z,1005.44
2017-11-06T02:01:05.738Z,1005.46
2017-11-06T02:02:05.652Z,1005.44
2017-11-06T02:03:05.566Z,1005.47
2017-11-06T02:04:05.489Z,1005.46
2017-11-06T02:05:05.406Z,1005.46
2017-11-06T02:06:05.311Z,1005.49
2017-11-06T02:07:05.238Z,1005.56
2017-11-06T02:08:05.145Z,1005.58
2017-11-06T02:09:05.065Z,1005.60
2017-11-06T02:10:04.981Z,1005.63
2017-11-06T02:11:04.886Z,1005.65
2017-11-06T02:12:04.805Z,1005.69
2017-11-06T02:13:04.720Z,1005.69
2017-11-06T02:14:04.663Z,1005.71
2017-11-06T02:15:04.553Z,1005.71
2017-11-06T02:16:04.476Z,1005.70
2017-11-06T02:17:04.423Z,1005.76
2017-11-06T02:18:04.311Z,1005.75
2017-11-06T02:19:04.219Z,1005.74
2017-11-06T02:20:04.181Z,1005.68
2017-11-06T02:21:04.042Z,1005.67
2017-11-06T02:22:03.976Z,1005.68
2017-11-06T02:23:03.870Z,1005.68
2017-11-06T02:24:03.785Z,1005.69
2017-11-06T02:25:03.700Z,1005.65
2017-11-06T02:26:03.624Z,1005.65
2017-11-06T02:27:03.552Z,1005.65
2017-11-06T02:28:03.446Z,1005.65
2017-11-06T02:29:03.368Z,1005.69
2017-11-06T02:30:03.281Z,1005.67
2017-11-06T02:31:03.189Z,1005.74
2017-11-06T02:32:03.102Z,1005.72
2017-11-06T02:33:03.024Z,1005.76
2017-11-06T02:34:02.935Z,1005.75
2017-11-06T02:35:02.852Z,1005.76
2017-11-06T02:36:02.768Z,1005.84
2017-11-06T02:37:02.687Z,1005.87
2017-11-06T02:38:02.596Z,1005.86
2017-11-06T02:39:02.521Z,1005.85
2017-11-06T02:40:02.456Z,1005.85
2017-11-06T02:41:02.343Z,1005.85
2017-11-06T02:42:02.261Z,1005.83
2017-11-06T02:43:02.185Z,1005.81
2017-11-06T02:44:02.092Z,1005.82
2017-11-06T02:45:02.012Z,1005.82
2017-11-06T02:46:01.918Z,1005.86
2017-11-06T02:47:01.832Z,1005.84
2017-11-06T02:48:01.746Z,1005.81
2017-11-06T02:49:01.665Z,1005.79
2017-11-06T02:50:01.584Z,1005.80
2017-11-06T02:51:01.496Z,1005.79
2017-11-06T02:52:01.418Z,1005.76
2017-11-06T02:53:01.344Z,1005.76
2017-11-06T02:54:01.243Z,1005.77
2017-11-06T02:55:01.150Z,1005.80
2017-11-06T02:56:01.069Z,1005.75
2017-11-06T02:57:00.982Z,1005.80
2017-11-06T02:58:00.904Z,1005.81
2017-11-06T02:59:00.813Z,1005.82
2017-11-06T03:00:00.731Z,1005.79
2017-11-06T03:01:00.648Z,1005.82
2017-11-06T03:02:00.555Z,1005.84
2017-11-06T03:03:00.482Z,1005.86
2017-11-06T03:04:00.387Z,1005.87
2017-11-06T03:05:00.303Z,1005.88
2017-11-06T03:06:00.221Z,1005.87
2017-11-06T03:07:00.132Z,1005.88
2017-11-06T03:08:00.052Z,1005.86
2017-11-06T03:08:59.961Z,1005.89
2017-11-06T03:09:59.876Z,1005.89
2017-11-06T03:10:59.794Z,1005.90
2017-11-06T03:11:59.707Z,1005.91
2017-11-06T03:12:59.620Z,1005.93
2017-11-06T03:13:59.537Z,1005.90
2017-11-06T03:14:59.460Z,1005.91
2017-11-06T03:15:59.374Z,1005.93
2017-11-06T03:16:59.284Z,1005.91
2017-11-06T03:17:59.197Z,1005.92
2017-11-06T03:18:59.137Z,1005.94
2017-11-06T03:19:59.032Z,1005.96
2017-11-06T03:20:58.939Z,1005.97
2017-11-06T03:21:58.872Z,1005.98
2017-11-06T03:22:58.772Z,1006.01
2017-11-06T03:23:58.735Z,1006.03
2017-11-06T03:24:58.610Z,1006.02
2017-11-06T03:25:58.518Z,1006.04
2017-11-06T03:26:58.443Z,1006.08
2017-11-06T03:27:58.346Z,1006.10
2017-11-06T03:28:58.265Z,1006.12
2017-11-06T03:29:58.173Z,1006.15
2017-11-06T03:30:58.092Z,1006.14
2017-11-06T03:31:58.020Z,1006.14
2017-11-06T03:32:57.922Z,1006.08
2017-11-06T03:33:57.836Z,1006.13
2017-11-06T03:34:57.761Z,1006.11
2017-11-06T03:35:57.667Z,1006.13
2017-11-06T03:36:57.583Z,1006.17
2017-11-06T03:37:57.492Z,1006.16
2017-11-06T03:38:57.413Z,1006.20
2017-11-06T03:39:57.323Z,1006.16
2017-11-06T03:40:57.242Z,1006.18
2017-11-06T03:41:57.153Z,1006.18
2017-11-06T03:42:57.067Z,1006.19
2017-11-06T03:43:56.987Z,1006.19
2017-11-06T03:44:56.909Z,1006.23
2017-11-06T03:45:56.824Z,1006.23
2017-11-06T03:46:56.741Z,1006.26
2017-11-06T03:47:56.653Z,1006.28
2017-11-06T03:48:56.560Z,1006.26
2017-11-06T03:49:56.470Z,1006.26
2017-11-06T03:50:56.386Z,1006.30
2017-11-06T03:51:56.304Z,1006.34
2017-11-06T03:52:56.217Z,1006.33
2017-11-06T03:53:56.133Z,1006.35
2017-11-06T03:54:56.047Z,1006.38
2017-11-06T03:55:55.960Z,1006.39
2017-11-06T03:56:55.875Z,1006.41
2017-11-06T03:57:55.788Z,1006.48
2017-11-06T03:58:55.702Z,1006.44
2017-11-06T03:59:55.619Z,1006.47
2017-11-06T04:00:55.532Z,1006.47
2017-11-06T04:01:55.457Z,1006.49
2017-11-06T04:02:55.382Z,1006.46
2017-11-06T04:03:55.290Z,1006.50
2017-11-06T04:04:55.215Z,1006.48
2017-11-06T04:05:55.113Z,1006.49
2017-11-06T04:06:55.020Z,1006.48
2017-11-06T04:07:54.939Z,1006.49
2017-11-06T04:08:54.858Z,1006.50
2017-11-06T04:09:54.766Z,1006.49
2017-11-06T04:10:54.698Z,1006.52
2017-11-06T04:11:54.628Z,1006.51
2017-11-06T04:12:54.519Z,1006.50
2017-11-06T04:13:54.432Z,1006.53
2017-11-06T04:14:54.349Z,1006.52
2017-11-06T04:15:54.256Z,1006.52
2017-11-06T04:16:54.172Z,1006.53
2017-11-06T04:17:54.086Z,1006.54
2017-11-06T04:18:54.006Z,1006.56
2017-11-06T04:19:53.917Z,1006.59
2017-11-06T04:20:53.825Z,1006.62
2017-11-06T04:21:53.749Z,1006.62
2017-11-06T04:22:53.660Z,1006.60
2017-11-06T04:23:53.587Z,1006.61
2017-11-06T04:24:53.491Z,1006.60
2017-11-06T04:25:53.401Z,1006.63
2017-11-06T04:26:53.323Z,1006.61
2017-11-06T04:27:53.230Z,1006.67
2017-11-06T04:28:53.147Z,1006.64
2017-11-06T04:29:53.061Z,1006.69
2017-11-06T04:30:52.974Z,1006.69
2017-11-06T04:31:52.896Z,1006.67
2017-11-06T04:32:52.818Z,1006.69
2017-11-06T04:33:52.722Z,1006.70
2017-11-06T04:34:52.633Z,1006.70
2017-11-06T04:35:52.545Z,1006.71
2017-11-06T04:36:52.477Z,1006.72
2017-11-06T04:37:52.375Z,1006.70
2017-11-06T04:38:52.292Z,1006.69
2017-11-06T04:39:52.206Z,1006.69
2017-11-06T04:40:52.114Z,1006.72
2017-11-06T04:41:52.035Z,1006.75
2017-11-06T04:42:51.959Z,1006.76
2017-11-06T04:43:51.869Z,1006.80
2017-11-06T04:44:51.783Z,1006.78
2017-11-06T04:45:51.693Z,1006.77
2017-11-06T04:46:51.606Z,1006.78
2017-11-06T04:47:51.526Z,1006.79
2017-11-06T04:48:51.442Z,1006.74
2017-11-06T04:49:51.353Z,1006.79
2017-11-06T04:50:51.262Z,1006.83
2017-11-06T04:51:51.194Z,1006.81
2017-11-06T04:52:51.091Z,1006.84
2017-11-06T04:53:51.014Z,1006.91
2017-11-06T04:54:50.922Z,1006.91
2017-11-06T04:55:50.845Z,1006.91
2017-11-06T04:56:50.748Z,1006.94
2017-11-06T04:57:50.666Z,1006.96
2017-11-06T04:58:50.585Z,1006.98
2017-11-06T04:59:50.517Z,1007.00
2017-11-06T05:00:50.406Z,1006.99
2017-11-06T05:01:50.319Z,1007.00
2017-11-06T05:02:50.234Z,1007.00
2017-11-06T05:03:50.153Z,1007.05
2017-11-06T05:04:50.072Z,1007.04
2017-11-06T05:05:49.978Z,1007.07
2017-11-06T05:06:49.899Z,1007.11
2017-11-06T05:07:49.817Z,1007.10
2017-11-06T05:08:49.731Z,1007.09
2017-11-06T05:09:49.641Z,1007.09
2017-11-06T05:10:49.548Z,1007.10
2017-11-06T05:11:49.466Z,1007.14
2017-11-06T05:12:49.393Z,1007.11
2017-11-06T05:13:49.355Z,1007.16
2017-11-06T05:14:49.215Z,1007.16
2017-11-06T05:15:49.199Z,1007.17
2017-11-06T05:16:49.035Z,1007.17
2017-11-06T05:17:48.947Z,1007.18
2017-11-06T05:18:48.870Z,1007.16
2017-11-06T05:19:48.782Z,1007.17
2017-11-06T05:20:48.699Z,1007.15
2017-11-06T05:21:48.611Z,1007.15
2017-11-06T05:22:48.520Z,1007.16
2017-11-06T05:23:48.439Z,1007.17
2017-11-06T05:24:48.352Z,1007.17
2017-11-06T05:25:48.262Z,1007.21
2017-11-06T05:26:48.184Z,1007.22
2017-11-06T05:27:48.093Z,1007.25
2017-11-06T05:28:48.020Z,1007.26
2017-11-06T05:29:47.919Z,1007.25
2017-11-06T05:30:47.848Z,1007.25
2017-11-06T05:31:47.768Z,1007.27
2017-11-06T05:32:47.678Z,1007.27
2017-11-06T05:33:47.579Z,1007.34
2017-11-06T05:34:47.499Z,1007.32
2017-11-06T05:35:47.413Z,1007.35
2017-11-06T05:36:47.323Z,1007.36
2017-11-06T05:37:47.235Z,1007.39
2017-11-06T05:38:47.150Z,1007.39
2017-11-06T05:39:47.067Z,1007.38
2017-11-06T05:40:46.973Z,1007.35
2017-11-06T05:41:46.892Z,1007.39
2017-11-06T05:42:46.802Z,1007.37
2017-11-06T05:43:46.720Z,1007.37
2017-11-06T05:44:46.635Z,1007.40
2017-11-06T05:45:46.550Z,1007.41
2017-11-06T05:46:46.460Z,1007.41
2017-11-06T05:47:46.377Z,1007.40
2017-11-06T05:48:46.289Z,1007.44
2017-11-06T05:49:46.204Z,1007.47
2017-11-06T05:50:46.113Z,1007.47
2017-11-06T05:51:46.031Z,1007.47
2017-11-06T05:52:45.952Z,1007.48
2017-11-06T05:53:45.861Z,1007.48
2017-11-06T05:54:45.773Z,1007.46
2017-11-06T05:55:45.697Z,1007.48
2017-11-06T05:56:45.625Z,1007.49
2017-11-06T05:57:45.514Z,1007.54
2017-11-06T05:58:45.445Z,1007.55
2017-11-06T05:59:45.343Z,1007.56
2017-11-06T06:00:45.266Z,1007.59
2017-11-06T06:01:45.183Z,1007.57
2017-11-06T06:02:45.087Z,1007.58
2017-11-06T06:03:45.009Z,1007.65
2017-11-06T06:04:44.929Z,1007.60
2017-11-06T06:05:44.823Z,1007.57
2017-11-06T06:06:44.744Z,1007.66
2017-11-06T06:07:44.654Z,1007.64
2017-11-06T06:08:44.564Z,1007.64
2017-11-06T06:09:44.537Z,1007.66
2017-11-06T06:10:44.394Z,1007.66
2017-11-06T06:11:44.309Z,1007.67
2017-11-06T06:12:44.223Z,1007.64
2017-11-06T06:13:44.134Z,1007.64
2017-11-06T06:14:44.050Z,1007.67
2017-11-06T06:15:43.998Z,1007.63
2017-11-06T06:16:43.884Z,1007.63
2017-11-06T06:17:43.795Z,1007.59
2017-11-06T06:18:43.718Z,1007.60
2017-11-06T06:19:43.619Z,1007.62
2017-11-06T06:20:43.532Z,1007.63
2017-11-06T06:21:43.466Z,1007.66
2017-11-06T06:22:43.359Z,1007.70
2017-11-06T06:23:43.273Z,1007.76
2017-11-06T06:24:43.186Z,1007.72
2017-11-06T06:25:43.109Z,1007.71
2017-11-06T06:26:43.015Z,1007.72
2017-11-06T06:27:42.927Z,1007.72
2017-11-06T06:28:42.846Z,1007.72
2017-11-06T06:29:42.770Z,1007.71
2017-11-06T06:30:42.868Z,1007.69
2017-11-06T06:31:42.585Z,1007.75
2017-11-06T06:32:42.501Z,1007.74
2017-11-06T06:33:42.408Z,1007.78
2017-11-06T06:34:42.328Z,1007.76
2017-11-06T06:35:42.235Z,1007.80
2017-11-06T06:36:42.151Z,1007.82
2017-11-06T06:37:42.061Z,1007.85
2017-11-06T06:38:41.977Z,1007.85
2017-11-06T06:39:41.888Z,1007.86
2017-11-06T06:40:41.807Z,1007.85
2017-11-06T06:41:41.726Z,1007.90
2017-11-06T06:42:41.627Z,1007.92
2017-11-06T06:43:41.549Z,1007.93
2017-11-06T06:44:41.455Z,1007.93
2017-11-06T06:45:41.363Z,1007.98
2017-11-06T06:46:41.286Z,1008.02
2017-11-06T06:47:41.197Z,1008.03
2017-11-06T06:48:41.108Z,1008.04
2017-11-06T06:49:41.018Z,1008.04
2017-11-06T06:50:40.934Z,1008.02
2017-11-06T06:51:40.930Z,1008.04
2017-11-06T06:52:40.764Z,1008.07
2017-11-06T06:53:40.723Z,1008.07
2017-11-06T06:54:40.589Z,1008.04
2017-11-06T06:55:40.498Z,1008.06
2017-11-06T06:56:40.413Z,1008.09
2017-11-06T06:57:40.324Z,1008.15
2017-11-06T06:58:40.247Z,1008.19
2017-11-06T06:59:40.153Z,1008.18
2017-11-06T07:00:40.069Z,1008.21
2017-11-06T07:01:39.991Z,1008.22
2017-11-06T07:02:39.896Z,1008.25
2017-11-06T07:03:39.806Z,1008.27
2017-11-06T07:04:39.719Z,1008.31
2017-11-06T07:05:39.632Z,1008.32
2017-11-06T07:06:39.575Z,1008.32
2017-11-06T07:07:39.464Z,1008.30
2017-11-06T07:08:39.391Z,1008.33
2017-11-06T07:09:39.292Z,1008.38
2017-11-06T07:10:39.209Z,1008.31
2017-11-06T07:11:39.133Z,1008.32
2017-11-06T07:12:39.037Z,1008.35
2017-11-06T07:13:38.944Z,1008.39
2017-11-06T07:14:38.856Z,1008.37
2017-11-06T07:15:38.768Z,1008.41
2017-11-06T07:16:38.685Z,1008.41
2017-11-06T07:17:38.604Z,1008.45
2017-11-06T07:18:38.512Z,1008.47
2017-11-06T07:19:38.426Z,1008.46
2017-11-06T07:20:38.350Z,1008.45
2017-11-06T07:21:38.255Z,1008.47
2017-11-06T07:22:38.167Z,1008.48
2017-11-06T07:23:38.083Z,1008.49
2017-11-06T07:24:37.992Z,1008.48
2017-11-06T07:25:37.915Z,1008.51
2017-11-06T07:26:37.822Z,1008.51
2017-11-06T07:27:37.847Z,1008.52
2017-11-06T07:28:37.648Z,1008.51
2017-11-06T07:29:37.561Z,1008.52
2017-11-06T07:30:37.481Z,1008.58
2017-11-06T07:31:37.393Z,1008.57
2017-11-06T07:32:37.306Z,1008.62
2017-11-06T07:33:37.218Z,1008.63
2017-11-06T07:34:37.136Z,1008.66
2017-11-06T07:35:37.059Z,1008.69
2017-11-06T07:36:36.962Z,1008.69
2017-11-06T07:37:36.876Z,1008.68
2017-11-06T07:38:36.787Z,1008.66
2017-11-06T07:39:36.707Z,1008.70
2017-11-06T07:40:36.626Z,1008.70
2017-11-06T07:41:36.550Z,1008.75
2017-11-06T07:42:36.445Z,1008.74
2017-11-06T07:43:36.363Z,1008.77
2017-11-06T07:44:36.276Z,1008.80
2017-11-06T07:45:36.189Z,1008.81
2017-11-06T07:46:36.104Z,1008.81
2017-11-06T07:47:36.024Z,1008.84
2017-11-06T07:48:35.928Z,1008.91
2017-11-06T07:49:35.852Z,1008.87
2017-11-06T07:50:35.772Z,1008.91
2017-11-06T07:51:35.680Z,1008.86
2017-11-06T07:52:35.596Z,1008.91
2017-11-06T07:53:35.500Z,1008.90
2017-11-06T07:54:35.416Z,1008.95
2017-11-06T07:55:35.331Z,1008.97
2017-11-06T07:56:35.240Z,1009.00
2017-11-06T07:57:35.151Z,1008.97
2017-11-06T07:58:35.069Z,1008.96
2017-11-06T07:59:34.994Z,1009.02
2017-11-06T08:00:34.894Z,1008.99
2017-11-06T08:01:34.810Z,1009.05
2017-11-06T08:02:34.725Z,1009.04
2017-11-06T08:03:34.641Z,1009.08
2017-11-06T08:04:34.562Z,1009.06
2017-11-06T08:05:34.465Z,1009.10
2017-11-06T08:06:34.379Z,1009.13
2017-11-06T08:07:34.295Z,1009.10
2017-11-06T08:08:34.214Z,1009.14
2017-11-06T08:09:34.124Z,1009.18
2017-11-06T08:10:34.036Z,1009.19
2017-11-06T08:11:33.953Z,1009.25
2017-11-06T08:12:33.884Z,1009.22
2017-11-06T08:13:33.791Z,1009.25
2017-11-06T08:14:33.700Z,1009.22
2017-11-06T08:15:33.615Z,1009.23
2017-11-06T08:16:33.523Z,1009.21
2017-11-06T08:17:33.433Z,1009.29
2017-11-06T08:18:33.389Z,1009.29
2017-11-06T08:19:33.261Z,1009.28
2017-11-06T08:20:33.180Z,1009.27
2017-11-06T08:21:33.091Z,1009.33
2017-11-06T08:22:33.003Z,1009.38
2017-11-06T08:23:32.924Z,1009.38
2017-11-06T08:24:32.896Z,1009.36
2017-11-06T08:25:32.747Z,1009.37
2017-11-06T08:26:32.687Z,1009.37
2017-11-06T08:27:32.617Z,1009.40
2017-11-06T08:28:32.536Z,1009.37
2017-11-06T08:29:32.422Z,1009.43
2017-11-06T08:30:32.367Z,1009.37
2017-11-06T08:31:32.240Z,1009.41
2017-11-06T08:32:32.148Z,1009.42
2017-11-06T08:33:32.073Z,1009.39
2017-11-06T08:34:31.984Z,1009.46
2017-11-06T08:35:31.888Z,1009.48
2017-11-06T08:36:31.832Z,1009.54
2017-11-06T08:37:31.733Z,1009.54
2017-11-06T08:38:31.640Z,1009.52
2017-11-06T08:39:31.571Z,1009.53
2017-11-06T08:40:31.462Z,1009.53
2017-11-06T08:41:31.378Z,1009.53
2017-11-06T08:42:31.306Z,1009.55
2017-11-06T08:43:31.225Z,1009.56
2017-11-06T08:44:31.125Z,1009.55
2017-11-06T08:45:31.036Z,1009.63
2017-11-06T08:46:30.949Z,1009.62
2017-11-06T08:47:30.870Z,1009.64
2017-11-06T08:48:30.774Z,1009.63
2017-11-06T08:49:30.690Z,1009.63
2017-11-06T08:50:30.608Z,1009.63
2017-11-06T08:51:30.526Z,1009.62
2017-11-06T08:52:30.447Z,1009.61
2017-11-06T08:53:30.371Z,1009.64
2017-11-06T08:54:30.265Z,1009.63
2017-11-06T08:55:30.177Z,1009.63
2017-11-06T08:56:30.123Z,1009.63
2017-11-06T08:57:30.015Z,1009.64
2017-11-06T08:58:29.920Z,1009.63
2017-11-06T08:59:29.835Z,1009.65
2017-11-06T09:00:29.748Z,1009.67
2017-11-06T09:01:29.704Z,1009.66
2017-11-06T09:02:29.598Z,1009.68
2017-11-06T09:03:29.516Z,1009.66
2017-11-06T09:04:29.419Z,1009.67
2017-11-06T09:05:29.325Z,1009.64
2017-11-06T09:06:29.239Z,1009.63
2017-11-06T09:07:29.150Z,1009.66
2017-11-06T09:08:29.068Z,1009.69
2017-11-06T09:09:28.980Z,1009.69
2017-11-06T09:10:28.896Z,1009.74
2017-11-06T09:11:28.812Z,1009.72
2017-11-06T09:12:28.731Z,1009.73
2017-11-06T09:13:28.646Z,1009.71
2017-11-06T09:14:28.561Z,1009.74
2017-11-06T09:15:28.479Z,1009.73
2017-11-06T09:16:28.389Z,1009.73
2017-11-06T09:17:28.295Z,1009.75
2017-11-06T09:18:28.209Z,1009.76
2017-11-06T09:19:28.127Z,1009.76
2017-11-06T09:20:28.051Z,1009.77
2017-11-06T09:21:27.965Z,1009.81
2017-11-06T09:22:27.876Z,1009.80
2017-11-06T09:23:27.801Z,1009.79
2017-11-06T09:24:27.701Z,1009.78
2017-11-06T09:25:27.624Z,1009.76
2017-11-06T09:26:27.529Z,1009.76
2017-11-06T09:27:27.441Z,1009.77
2017-11-06T09:28:27.359Z,1009.78
2017-11-06T09:29:27.274Z,1009.74
2017-11-06T09:30:27.193Z,1009.79
2017-11-06T09:31:27.104Z,1009.82
2017-11-06T09:32:27.019Z,1009.85
2017-11-06T09:33:26.937Z,1009.80
2017-11-06T09:34:26.845Z,1009.87
2017-11-06T09:35:26.765Z,1009.91
2017-11-06T09:36:26.705Z,1009.95
2017-11-06T09:37:26.592Z,1009.99
2017-11-06T09:38:26.500Z,1010.01
2017-11-06T09:39:26.416Z,1010.14
2017-11-06T09:40:26.335Z,1010.18
2017-11-06T09:41:26.246Z,1010.35
2017-11-06T09:42:26.168Z,1010.28
2017-11-06T09:43:26.086Z,1010.17
2017-11-06T09:44:26.002Z,1010.19
2017-11-06T09:45:25.907Z,1010.65
2017-11-06T09:46:25.832Z,1010.63
2017-11-06T09:47:25.737Z,1010.82
2017-11-06T09:48:25.661Z,1011.15
2017-11-06T09:49:25.576Z,1011.66
2017-11-06T09:50:25.490Z,1010.81
2017-11-06T09:51:25.404Z,1011.08
2017-11-06T09:52:25.320Z,1010.57
2017-11-06T09:53:25.244Z,1010.59
2017-11-06T09:54:25.157Z,1010.81
2017-11-06T09:55:25.073Z,1010.70
2017-11-06T09:56:24.996Z,1010.98
2017-11-06T09:57:24.918Z,1012.75
2017-11-06T09:58:24.829Z,1010.69
2017-11-06T09:59:24.755Z,1011.63
2017-11-06T10:00:24.670Z,1013.35
2017-11-06T10:01:24.584Z,1011.83
2017-11-06T10:02:24.513Z,1014.87
2017-11-06T10:03:24.415Z,1011.19
2017-11-06T10:04:24.412Z,1011.45
2017-11-06T10:05:24.266Z,1010.96
2017-11-06T10:06:24.186Z,1010.76
2017-11-06T10:07:24.096Z,1010.80
2017-11-06T10:08:24.026Z,1010.78
2017-11-06T10:09:23.936Z,1010.76
2017-11-06T10:10:23.851Z,1015.05
2017-11-06T10:11:23.769Z,1011.33
2017-11-06T10:12:23.695Z,1011.12
2017-11-06T10:13:23.603Z,1010.95
2017-11-06T10:14:23.530Z,1010.82
2017-11-06T10:15:23.449Z,1010.99
2017-11-06T10:16:23.359Z,1010.87
2017-11-06T10:17:23.280Z,1010.58
2017-11-06T10:18:23.199Z,1010.52
2017-11-06T10:19:23.125Z,1010.50
2017-11-06T10:20:23.033Z,1010.49
2017-11-06T10:21:22.962Z,1010.51
2017-11-06T10:22:22.877Z,1010.49
2017-11-06T10:23:22.787Z,1010.51
2017-11-06T10:24:22.708Z,1010.50
2017-11-06T10:25:22.622Z,1010.49
2017-11-06T10:26:22.538Z,1010.49
2017-11-06T10:27:22.461Z,1010.64
2017-11-06T10:28:22.384Z,1010.54
2017-11-06T10:29:22.302Z,1010.53
2017-11-06T10:30:22.216Z,1010.54
2017-11-06T10:31:22.123Z,1010.60
2017-11-06T10:32:22.042Z,1010.68
2017-11-06T10:33:21.956Z,1010.59
2017-11-06T10:34:21.881Z,1010.60
2017-11-06T10:35:21.790Z,1010.84
2017-11-06T10:36:21.719Z,1010.55
2017-11-06T10:37:21.631Z,1010.50
2017-11-06T10:38:21.546Z,1010.52
2017-11-06T10:39:21.466Z,1010.52
2017-11-06T10:40:21.385Z,1010.47
2017-11-06T10:41:21.290Z,1010.52
2017-11-06T10:42:21.217Z,1010.50
2017-11-06T10:43:21.174Z,1010.47
2017-11-06T10:44:21.056Z,1010.52
2017-11-06T10:45:20.983Z,1010.47
2017-11-06T10:46:20.894Z,1010.48
2017-11-06T10:47:20.794Z,1010.48
2017-11-06T10:48:20.709Z,1010.49
2017-11-06T10:49:20.654Z,1010.50
2017-11-06T10:50:20.542Z,1010.41
2017-11-06T10:51:20.457Z,1010.37
2017-11-06T10:52:20.372Z,1010.35
2017-11-06T10:53:20.307Z,1010.33
2017-11-06T10:54:20.215Z,1010.37
2017-11-06T10:55:20.139Z,1010.35
2017-11-06T10:56:20.054Z,1010.35
2017-11-06T10:57:19.962Z,1010.36
2017-11-06T10:58:19.880Z,1010.35
2017-11-06T10:59:19.789Z,1010.30
2017-11-06T11:00:19.716Z,1010.28
2017-11-06T11:01:19.625Z,1010.28
2017-11-06T11:02:19.543Z,1010.26
2017-11-06T11:03:19.472Z,1010.23
2017-11-06T11:04:19.374Z,1010.23
2017-11-06T11:05:19.290Z,1010.24
2017-11-06T11:06:19.210Z,1010.27
2017-11-06T11:07:19.122Z,1010.30
2017-11-06T11:08:19.036Z,1010.28
2017-11-06T11:09:18.960Z,1010.35
2017-11-06T11:10:18.873Z,1010.34
2017-11-06T11:11:18.793Z,1010.29
2017-11-06T11:12:18.701Z,1010.28
2017-11-06T11:13:18.622Z,1010.29
2017-11-06T11:14:18.534Z,1010.34
2017-11-06T11:15:18.454Z,1010.94
2017-11-06T11:16:18.387Z,1010.63
2017-11-06T11:17:18.296Z,1010.59
2017-11-06T11:18:18.204Z,1010.91
2017-11-06T11:19:18.139Z,1010.89
2017-11-06T11:20:18.034Z,1011.08
2017-11-06T11:21:17.960Z,1011.63
2017-11-06T11:22:17.879Z,1010.92
2017-11-06T11:23:17.798Z,1010.73
2017-11-06T11:24:17.706Z,1010.68
2017-11-06T11:25:17.636Z,1010.55
2017-11-06T11:26:17.546Z,1010.53
2017-11-06T11:27:17.460Z,1010.85
2017-11-06T11:28:17.378Z,1011.64
2017-11-06T11:29:17.294Z,1010.95
2017-11-06T11:30:17.213Z,1010.47
2017-11-06T11:31:17.132Z,1010.27
2017-11-06T11:32:17.050Z,1010.15
2017-11-06T11:33:16.976Z,1010.09
2017-11-06T11:34:16.902Z,1010.10
2017-11-06T11:35:16.824Z,1010.08
2017-11-06T11:36:16.730Z,1010.11
2017-11-06T11:37:16.650Z,1010.13
2017-11-06T11:38:16.557Z,1010.06
2017-11-06T11:39:16.469Z,1010.05
2017-11-06T11:40:16.415Z,1010.04
2017-11-06T11:41:16.301Z,1010.07
2017-11-06T11:42:16.226Z,1010.05
2017-11-06T11:43:16.133Z,1010.05
2017-11-06T11:44:16.099Z,1010.02
2017-11-06T11:45:15.964Z,1010.01
2017-11-06T11:46:15.896Z,1010.00
2017-11-06T11:47:15.819Z,1010.01
2017-11-06T11:48:15.751Z,1010.06
2017-11-06T11:49:15.637Z,1010.03
2017-11-06T11:50:15.593Z,1010.04
2017-11-06T11:51:15.505Z,1010.00
2017-11-06T11:52:15.496Z,1010.04
2017-11-06T11:53:15.309Z,1010.07
2017-11-06T11:54:15.291Z,1010.10
2017-11-06T11:55:15.149Z,1010.14
2017-11-06T11:56:15.045Z,1010.07
2017-11-06T11:57:15.010Z,1010.03
2017-11-06T11:58:14.923Z,1010.05
2017-11-06T11:59:14.793Z,1010.09
2017-11-06T12:00:14.708Z,1010.08
2017-11-06T12:01:14.627Z,1010.09
2017-11-06T12:02:14.540Z,1010.08
2017-11-06T12:03:14.455Z,1010.10
2017-11-06T12:04:14.369Z,1010.16